AirNav   $300 off a Bose A20 aviation headset
 
 891 users online  

M28 Mid Continent Airport
Hayti, Missouri, USA

GOING TO HAYTI?


FAA INFORMATION EFFECTIVE 28 FEBRUARY 2019

Location

FAA Identifier: M28
Lat/Long: 36-13-27.3000N / 089-43-43.8000W
36-13.455000N / 089-43.730000W
36.2242500 / -89.7288333
(estimated)
Elevation: 268 ft. / 81.7 m (surveyed)
Variation: 02E (1985)
From city: 2 miles E of HAYTI, MO
Time zone: UTC -6 (UTC -5 during Daylight Saving Time)
Zip code: 63851

Airport Operations

Airport use: Open to the public
Activation date: 12/1952
Control tower: no
ARTCC: MEMPHIS CENTER
FSS: SAINT LOUIS FLIGHT SERVICE STATION
NOTAMs facility: STL (NOTAM-D service available)
Attendance: MON-FRI 0800-1700, ALL SAT 0800-1200
Wind indicator: yes, MARKED WITH YELLOW CONES ON EAST SIDE OF RUNWAY
Segmented circle: no

Airport Communications

CTAF: 122.9
WX AWOS-3PT at TKX (15 nm W): 119.05 (573-888-9640)
WX ASOS at HKA (18 nm S): 135.025 (870-763-8206)

Nearby radio navigation aids

VOR radial/distance  VOR name  Freq  Var
MAWr153/21.7MALDEN VORTAC111.2003E
DYRr299/23.4DYERSBURG VORTAC116.8003E

Airport Services

Fuel available: 100LL JET-A
Parking: tiedowns
Airframe service: MAJOR
Powerplant service: MAJOR

Runway Information

Runway 18/36

Dimensions: 3420 x 175 ft. / 1042 x 53 m
NORTH 475' OF RY 155' WIDE.
Surface: turf, in good condition
900 FT BY 20 FT PAVED ASPH 305 FT SOUTH OF RWY 18 THLD. 20 FT TO 5 FT EAST OF CNTRLN.
Runway edge markings: RWY 18/36 WHITE NON-FRANGIBLE REFLECTORS AND YELLOW CONES MARK EDGE OF RWY; RWY ENDS NOT MKD, DTHR MKD WITH GROUPS OF YELLOW CONES.
RUNWAY 18  RUNWAY 36
Latitude: 36-13.736667N36-13.173000N
Longitude: 089-43.733667W089-43.725000W
Elevation: 264.0 ft.266.0 ft.
Traffic pattern: leftleft
Displaced threshold: 305 ft.80 ft.
Markings: nonenone
Obstructions: 43 ft. pline, 355 ft. from runway, 160 ft. left and right of centerline, 8:1 slope to clear
RWY 18 APPROACH SLOPE RATIO 15:1 TO DSPLCD THR
10 ft. road, 125 ft. left and right of centerline
APCH SLOPE RATIO 10:1 TO DSPLCD THR.

Airport Ownership and Management from official FAA records

Ownership: Privately-owned
Owner: MID-CONTINENT AIRCRAFT CORP.
HAYTI, MO 63851
Phone 573-359-0500
Manager: RICHARD READE
PO BOX 540, PO BOX 540
HAYTI, MO 63851
Phone 573-359-0500

Airport Operational Statistics

Aircraft based on the field: 20
Single engine airplanes: 20
    
Aircraft operations: avg 81/week *
64% transient general aviation
36% local general aviation
<1% military
<1% air taxi
* for 12-month period ending 31 December 2016

Additional Remarks

A/G TEST FLYING.
FARM ROAD CROSSES MIDDLE OF RY.
CROP DUSTING ACFT ON & INVOF ARPT.
NSTD RWY SAFETY AREA BYND EACH RWY END; INSUFFICENT LENGTH, ROADS, AND CROPS.

Instrument Procedures

There are no published instrument procedures at M28.

Some nearby airports with instrument procedures:

M05 - Caruthersville Memorial Airport (4 nm SE)
M12 - Steele Municipal Airport (10 nm SW)
KTKX - Kennett Memorial Airport (15 nm W)
M85 - Gideon Memorial Airport (16 nm NW)
KHKA - Blytheville Municipal Airport (18 nm S)
KBYH - Arkansas International Airport (19 nm SW)
KEIW - County Memorial Airport (20 nm N)
 
Loc | Ops | Rwys | IFR | FBO | Links
Com | Nav | Svcs | Stats | Notes

Kansas City Aviation Department
 
Area around M28 (Mid Continent Airport)
 
Road maps at: MapQuest Bing Google
 
Aerial photo
No photo
 
Sectional chart

 
Airport distance calculator
Flying to Mid Continent Airport? Find the distance to fly.

From to M28

Sunrise and sunset
Times for 26-Mar-2019
 Local
(UTC-5)
 Zulu
(UTC)
Morning civil twilight06:2911:29
Sunrise06:5511:55
Sunset19:1500:15
Evening civil twilight19:4000:40

Current date and time
Zulu (UTC)  27-Mar-2019 01:19:40
Local (UTC-5)  26-Mar-2019 20:19:40
 
METAR
KTKX 
15nm W 
270055Z AUTO 04008KT 10SM CLR 10/M02 A3032 RMK AO2
KHKA 
18nm S 
270053Z AUTO 05007KT 10SM CLR 08/M03 A3033 RMK AO2 SLP273 T00831028 $
KBYH 
18nm S 
262150Z 02010G22KT 10SM SKC 13/M02 A3033 RMK LAST
KDYR 
21nm SE 
270056Z AUTO 34005KT 10SM CLR 09/M04 A3034 RMK AO2 SLP292 T00891039 PNO $
KMAW 
26nm NW 
270055Z AUTO 03006KT 10SM CLR 10/M02 A3035 RMK AO2
TAF
NOTAMs
Click for the latest NOTAMs
NOTAMs are issued by the DoD/FAA and will open in a separate window not controlled by AirNav.

 

 
 

Would you like to see your business listed on this page?

 If your business provides an interesting product or service to pilots, flight crews, aircraft, or users of the Mid Continent Airport, you should consider listing it here.  To start the listing process, click on the button below
 
Add a business
 

Other Pages about Mid Continent Airport

Update a link
 
Copyright © AirNav, LLC. All rights reserved. Privacy Policy  Contact